createdAt,value
2017-12-30T00:00:21.573Z,0.00
2017-12-30T00:01:21.485Z,0.00
2017-12-30T00:02:21.398Z,0.00
2017-12-30T00:03:21.302Z,0.00
2017-12-30T00:04:21.255Z,0.00
2017-12-30T00:05:21.136Z,0.00
2017-12-30T00:06:21.058Z,0.00
2017-12-30T00:07:20.966Z,0.00
2017-12-30T00:08:20.898Z,0.00
2017-12-30T00:09:20.806Z,0.00
2017-12-30T00:10:20.776Z,0.00
2017-12-30T00:11:20.636Z,0.00
2017-12-30T00:12:20.551Z,0.00
2017-12-30T00:13:20.458Z,0.00
2017-12-30T00:14:20.381Z,0.00
2017-12-30T00:15:20.299Z,0.00
2017-12-30T00:16:20.213Z,0.00
2017-12-30T00:17:20.120Z,0.00
2017-12-30T00:18:20.050Z,0.00
2017-12-30T00:19:19.960Z,0.00
2017-12-30T00:20:19.877Z,0.00
2017-12-30T00:21:19.786Z,0.00
2017-12-30T00:22:19.714Z,0.00
2017-12-30T00:23:19.618Z,0.00
2017-12-30T00:24:19.540Z,0.00
2017-12-30T00:25:19.467Z,0.00
2017-12-30T00:26:19.385Z,0.00
2017-12-30T00:27:19.282Z,0.00
2017-12-30T00:28:19.208Z,0.00
2017-12-30T00:29:19.111Z,0.00
2017-12-30T00:30:19.035Z,0.00
2017-12-30T00:31:18.952Z,0.00
2017-12-30T00:32:18.865Z,0.00
2017-12-30T00:33:18.780Z,0.00
2017-12-30T00:34:18.699Z,0.00
2017-12-30T00:35:18.613Z,0.00
2017-12-30T00:36:18.533Z,0.00
2017-12-30T00:37:18.421Z,0.00
2017-12-30T00:38:18.362Z,0.00
2017-12-30T00:39:18.279Z,0.00
2017-12-30T00:40:18.193Z,0.00
2017-12-30T00:41:18.096Z,0.00
2017-12-30T00:42:18.042Z,0.00
2017-12-30T00:43:17.939Z,0.00
2017-12-30T00:44:17.854Z,0.00
2017-12-30T00:45:17.769Z,0.00
2017-12-30T00:46:17.701Z,0.00
2017-12-30T00:47:17.589Z,0.00
2017-12-30T00:48:17.532Z,0.00
2017-12-30T00:49:17.429Z,0.00
2017-12-30T00:50:17.355Z,0.00
2017-12-30T00:51:17.269Z,0.00
2017-12-30T00:52:17.185Z,0.00
2017-12-30T00:53:17.144Z,0.00
2017-12-30T00:54:17.012Z,0.00
2017-12-30T00:55:16.912Z,0.00
2017-12-30T00:56:16.870Z,0.00
2017-12-30T00:57:16.797Z,0.00
2017-12-30T00:58:16.676Z,0.00
2017-12-30T00:59:16.603Z,0.00
2017-12-30T01:00:16.546Z,0.00
2017-12-30T01:01:16.435Z,0.00
2017-12-30T01:02:16.383Z,0.00
2017-12-30T01:03:16.260Z,0.00
2017-12-30T01:04:16.204Z,0.00
2017-12-30T01:05:16.102Z,0.00
2017-12-30T01:06:16.013Z,0.00
2017-12-30T01:07:15.915Z,0.00
2017-12-30T01:08:15.863Z,0.00
2017-12-30T01:09:15.773Z,0.00
2017-12-30T01:10:15.674Z,0.00
2017-12-30T01:11:15.572Z,0.00
2017-12-30T01:12:15.512Z,0.00
2017-12-30T01:13:15.430Z,0.00
2017-12-30T01:14:15.362Z,0.00
2017-12-30T01:15:15.269Z,0.00
2017-12-30T01:16:15.182Z,0.00
2017-12-30T01:17:15.088Z,0.00
2017-12-30T01:18:15.007Z,0.00
2017-12-30T01:19:14.908Z,0.00
2017-12-30T01:20:14.856Z,0.00
2017-12-30T01:21:14.785Z,0.00
2017-12-30T01:22:14.679Z,0.00
2017-12-30T01:23:14.577Z,0.00
2017-12-30T01:24:14.511Z,0.00
2017-12-30T01:25:14.438Z,0.00
2017-12-30T01:26:14.325Z,0.00
2017-12-30T01:27:14.240Z,0.00
2017-12-30T01:28:14.170Z,0.00
2017-12-30T01:29:14.060Z,0.00
2017-12-30T01:30:14.017Z,0.00
2017-12-30T01:31:13.929Z,0.00
2017-12-30T01:32:13.837Z,0.00
2017-12-30T01:33:13.752Z,0.00
2017-12-30T01:34:13.657Z,0.00
2017-12-30T01:35:13.581Z,0.00
2017-12-30T01:36:13.520Z,0.00
2017-12-30T01:37:13.437Z,0.00
2017-12-30T01:38:13.313Z,0.00
2017-12-30T01:39:13.252Z,0.00
2017-12-30T01:40:13.165Z,0.00
2017-12-30T01:41:13.079Z,0.00
2017-12-30T01:42:12.986Z,0.00
2017-12-30T01:43:12.882Z,0.00
2017-12-30T01:44:13.834Z,0.00
2017-12-30T01:45:12.751Z,0.00
2017-12-30T01:46:12.672Z,0.00
2017-12-30T01:47:12.570Z,0.00
2017-12-30T01:48:12.473Z,0.00
2017-12-30T01:49:12.424Z,0.00
2017-12-30T01:50:12.345Z,0.00
2017-12-30T01:51:12.261Z,0.00
2017-12-30T01:52:12.159Z,0.00
2017-12-30T01:53:12.057Z,0.00
2017-12-30T01:54:12.006Z,0.00
2017-12-30T01:55:11.934Z,0.00
2017-12-30T01:56:11.811Z,0.00
2017-12-30T01:57:11.726Z,0.00
2017-12-30T01:58:11.660Z,0.00
2017-12-30T01:59:11.541Z,0.00
2017-12-30T02:00:11.488Z,0.00
2017-12-30T02:01:11.383Z,0.00
2017-12-30T02:02:11.306Z,0.00
2017-12-30T02:03:11.219Z,0.00
2017-12-30T02:04:11.139Z,0.00
2017-12-30T02:05:11.047Z,0.00
2017-12-30T02:06:10.991Z,0.00
2017-12-30T02:07:10.882Z,0.00
2017-12-30T02:08:10.793Z,0.00
2017-12-30T02:09:10.712Z,0.00
2017-12-30T02:10:10.651Z,0.00
2017-12-30T02:11:10.549Z,0.00
2017-12-30T02:12:10.473Z,0.00
2017-12-30T02:13:10.373Z,0.00
2017-12-30T02:14:10.297Z,0.00
2017-12-30T02:15:10.221Z,0.00
2017-12-30T02:16:10.143Z,0.00
2017-12-30T02:17:10.035Z,0.00
2017-12-30T02:18:09.967Z,0.00
2017-12-30T02:19:09.866Z,0.00
2017-12-30T02:20:09.801Z,0.00
2017-12-30T02:21:09.740Z,0.00
2017-12-30T02:22:09.636Z,0.00
2017-12-30T02:23:09.528Z,0.00
2017-12-30T02:24:09.458Z,0.00
2017-12-30T02:25:09.367Z,0.00
2017-12-30T02:26:09.299Z,0.00
2017-12-30T02:27:09.197Z,0.00
2017-12-30T02:28:09.145Z,0.00
2017-12-30T02:29:09.055Z,0.00
2017-12-30T02:30:08.956Z,0.00
2017-12-30T02:31:08.865Z,0.00
2017-12-30T02:32:08.789Z,0.00
2017-12-30T02:33:08.712Z,0.00
2017-12-30T02:34:08.614Z,0.00
2017-12-30T02:35:08.535Z,0.00
2017-12-30T02:36:08.455Z,0.00
2017-12-30T02:37:08.360Z,0.00
2017-12-30T02:38:08.296Z,0.00
2017-12-30T02:39:08.212Z,0.00
2017-12-30T02:40:08.134Z,0.00
2017-12-30T02:41:08.046Z,0.00
2017-12-30T02:42:07.959Z,0.00
2017-12-30T02:43:07.869Z,0.00
2017-12-30T02:44:07.783Z,0.00
2017-12-30T02:45:07.716Z,0.00
2017-12-30T02:46:07.634Z,0.00
2017-12-30T02:47:07.534Z,0.00
2017-12-30T02:48:07.461Z,0.00
2017-12-30T02:49:07.368Z,0.00
2017-12-30T02:50:08.288Z,0.00
2017-12-30T02:51:07.193Z,0.00
2017-12-30T02:52:07.121Z,0.00
2017-12-30T02:53:07.022Z,0.00
2017-12-30T02:54:06.955Z,0.00
2017-12-30T02:55:06.860Z,0.00
2017-12-30T02:56:06.793Z,0.00
2017-12-30T02:57:06.690Z,0.00
2017-12-30T02:58:06.612Z,0.00
2017-12-30T02:59:06.530Z,0.00
2017-12-30T03:00:06.445Z,0.00
2017-12-30T03:01:06.392Z,0.00
2017-12-30T03:02:06.291Z,0.00
2017-12-30T03:03:06.183Z,0.00
2017-12-30T03:04:06.125Z,0.00
2017-12-30T03:05:06.026Z,0.00
2017-12-30T03:06:05.952Z,0.00
2017-12-30T03:07:05.856Z,0.00
2017-12-30T03:08:05.792Z,0.00
2017-12-30T03:09:05.687Z,0.00
2017-12-30T03:10:05.636Z,0.00
2017-12-30T03:11:05.518Z,0.00
2017-12-30T03:12:05.456Z,0.00
2017-12-30T03:13:05.375Z,0.00
2017-12-30T03:14:05.275Z,0.00
2017-12-30T03:15:05.182Z,0.00
2017-12-30T03:16:05.135Z,0.00
2017-12-30T03:17:05.013Z,0.00
2017-12-30T03:18:04.950Z,0.00
2017-12-30T03:19:04.863Z,0.00
2017-12-30T03:20:04.791Z,0.00
2017-12-30T03:21:04.701Z,0.00
2017-12-30T03:22:04.629Z,0.00
2017-12-30T03:23:04.516Z,0.00
2017-12-30T03:24:04.446Z,0.00
2017-12-30T03:25:04.344Z,0.00
2017-12-30T03:26:04.276Z,0.00
2017-12-30T03:27:04.195Z,0.00
2017-12-30T03:28:04.115Z,0.00
2017-12-30T03:29:04.030Z,0.00
2017-12-30T03:30:03.946Z,0.00
2017-12-30T03:31:03.855Z,0.00
2017-12-30T03:32:03.786Z,0.00
2017-12-30T03:33:03.678Z,0.00
2017-12-30T03:34:03.606Z,0.00
2017-12-30T03:35:03.519Z,0.00
2017-12-30T03:36:03.462Z,0.00
2017-12-30T03:37:03.369Z,0.00
2017-12-30T03:38:03.286Z,0.00
2017-12-30T03:39:03.192Z,0.00
2017-12-30T03:40:03.111Z,0.00
2017-12-30T03:41:03.013Z,0.00
2017-12-30T03:42:02.943Z,0.00
2017-12-30T03:43:02.851Z,0.00
2017-12-30T03:44:02.775Z,0.00
2017-12-30T03:45:02.682Z,0.00
2017-12-30T03:46:02.626Z,0.00
2017-12-30T03:47:02.510Z,0.00
2017-12-30T03:48:02.440Z,0.00
2017-12-30T03:49:02.370Z,0.00
2017-12-30T03:50:02.272Z,0.00
2017-12-30T03:51:02.174Z,0.00
2017-12-30T03:52:02.108Z,0.00
2017-12-30T03:53:02.012Z,0.00
2017-12-30T03:54:01.944Z,0.00
2017-12-30T03:55:01.865Z,0.00
2017-12-30T03:56:01.770Z,0.00
2017-12-30T03:57:01.693Z,0.00
2017-12-30T03:58:01.597Z,0.00
2017-12-30T03:59:01.521Z,0.00
2017-12-30T04:00:01.455Z,0.00
2017-12-30T04:01:01.347Z,0.00
2017-12-30T04:02:01.276Z,0.00
2017-12-30T04:03:01.193Z,0.00
2017-12-30T04:04:01.105Z,0.00
2017-12-30T04:05:01.013Z,0.00
2017-12-30T04:06:00.955Z,0.00
2017-12-30T04:07:00.847Z,0.00
2017-12-30T04:08:00.771Z,0.00
2017-12-30T04:09:00.688Z,0.00
2017-12-30T04:10:00.605Z,0.00
2017-12-30T04:11:00.510Z,0.00
2017-12-30T04:12:00.451Z,0.00
2017-12-30T04:13:00.336Z,0.00
2017-12-30T04:14:00.267Z,0.00
2017-12-30T04:15:00.180Z,0.00
2017-12-30T04:16:00.097Z,0.00
2017-12-30T04:17:00.008Z,0.00
2017-12-30T04:17:59.940Z,0.00
2017-12-30T04:18:59.851Z,0.00
2017-12-30T04:19:59.778Z,0.00
2017-12-30T04:20:59.678Z,0.00
2017-12-30T04:21:59.600Z,0.00
2017-12-30T04:22:59.514Z,0.00
2017-12-30T04:23:59.442Z,0.00
2017-12-30T04:24:59.357Z,0.00
2017-12-30T04:25:59.268Z,0.00
2017-12-30T04:26:59.183Z,0.00
2017-12-30T04:27:59.110Z,0.00
2017-12-30T04:28:59.009Z,0.00
2017-12-30T04:29:58.935Z,0.00
2017-12-30T04:30:58.834Z,0.00
2017-12-30T04:31:58.763Z,0.00
2017-12-30T04:32:58.682Z,0.00
2017-12-30T04:33:58.614Z,0.00
2017-12-30T04:34:58.503Z,0.00
2017-12-30T04:35:58.441Z,0.00
2017-12-30T04:36:58.362Z,0.00
2017-12-30T04:37:58.272Z,0.00
2017-12-30T04:38:58.169Z,0.00
2017-12-30T04:39:58.097Z,0.00
2017-12-30T04:40:58.019Z,0.00
2017-12-30T04:41:57.942Z,0.00
2017-12-30T04:42:57.844Z,0.00
2017-12-30T04:43:57.780Z,0.00
2017-12-30T04:44:57.672Z,0.00
2017-12-30T04:45:57.603Z,0.00
2017-12-30T04:46:57.516Z,0.00
2017-12-30T04:47:57.433Z,0.00
2017-12-30T04:48:57.339Z,0.00
2017-12-30T04:49:57.264Z,0.00
2017-12-30T04:50:57.172Z,0.00
2017-12-30T04:51:57.109Z,0.00
2017-12-30T04:52:56.997Z,0.00
2017-12-30T04:53:56.934Z,0.00
2017-12-30T04:54:56.857Z,0.00
2017-12-30T04:55:56.765Z,0.00
2017-12-30T04:56:56.681Z,0.00
2017-12-30T04:57:56.607Z,0.00
2017-12-30T04:58:56.514Z,0.00
2017-12-30T04:59:56.444Z,0.00
2017-12-30T05:00:56.348Z,0.00
2017-12-30T05:01:56.261Z,0.00
2017-12-30T05:02:56.184Z,0.00
2017-12-30T05:03:56.110Z,0.00
2017-12-30T05:04:56.001Z,0.00
2017-12-30T05:05:55.928Z,0.00
2017-12-30T05:06:55.841Z,0.00
2017-12-30T05:07:55.773Z,0.00
2017-12-30T05:08:55.695Z,0.00
2017-12-30T05:09:55.598Z,0.00
2017-12-30T05:10:55.501Z,0.00
2017-12-30T05:11:55.431Z,0.00
2017-12-30T05:12:55.343Z,0.00
2017-12-30T05:13:55.277Z,0.00
2017-12-30T05:14:55.174Z,0.00
2017-12-30T05:15:55.098Z,0.00
2017-12-30T05:16:55.008Z,0.00
2017-12-30T05:17:55.937Z,0.00
2017-12-30T05:18:54.840Z,0.00
2017-12-30T05:19:54.765Z,0.00
2017-12-30T05:20:54.680Z,0.00
2017-12-30T05:21:54.592Z,0.00
2017-12-30T05:22:54.501Z,0.00
2017-12-30T05:23:54.430Z,0.00
2017-12-30T05:24:54.347Z,0.00
2017-12-30T05:25:54.264Z,0.00
2017-12-30T05:26:54.179Z,0.00
2017-12-30T05:27:54.096Z,0.00
2017-12-30T05:28:53.996Z,0.00
2017-12-30T05:29:53.924Z,0.00
2017-12-30T05:30:53.851Z,0.00
2017-12-30T05:31:53.749Z,0.00
2017-12-30T05:32:53.666Z,0.00
2017-12-30T05:33:53.589Z,0.00
2017-12-30T05:34:53.499Z,0.00
2017-12-30T05:35:53.422Z,0.00
2017-12-30T05:36:53.322Z,0.00
2017-12-30T05:37:53.255Z,0.00
2017-12-30T05:38:53.161Z,0.00
2017-12-30T05:39:53.087Z,0.00
2017-12-30T05:40:53.007Z,0.00
2017-12-30T05:41:52.928Z,0.00
2017-12-30T05:42:52.822Z,0.00
2017-12-30T05:43:52.742Z,0.00
2017-12-30T05:44:52.656Z,0.00
2017-12-30T05:45:52.573Z,0.00
2017-12-30T05:46:52.497Z,0.00
2017-12-30T05:47:52.403Z,0.00
2017-12-30T05:48:52.321Z,0.00
2017-12-30T05:49:52.250Z,0.00
2017-12-30T05:50:52.157Z,0.00
2017-12-30T05:51:52.078Z,0.00
2017-12-30T05:52:51.976Z,0.00
2017-12-30T05:53:51.921Z,0.00
2017-12-30T05:54:51.826Z,0.00
2017-12-30T05:55:51.744Z,0.00
2017-12-30T05:56:51.654Z,0.00
2017-12-30T05:57:51.576Z,0.00
2017-12-30T05:58:51.478Z,0.00
2017-12-30T05:59:51.412Z,0.00
2017-12-30T06:00:51.306Z,0.00
2017-12-30T06:01:51.230Z,0.00
2017-12-30T06:02:51.145Z,0.00
2017-12-30T06:03:51.069Z,0.00
2017-12-30T06:04:50.977Z,0.00
2017-12-30T06:05:50.903Z,0.00
2017-12-30T06:06:50.814Z,0.00
2017-12-30T06:07:50.728Z,0.00
2017-12-30T06:08:50.649Z,0.00
2017-12-30T06:09:50.566Z,0.00
2017-12-30T06:10:50.494Z,0.00
2017-12-30T06:11:50.398Z,0.00
2017-12-30T06:12:50.316Z,0.00
2017-12-30T06:13:50.226Z,0.00
2017-12-30T06:14:50.142Z,0.00
2017-12-30T06:15:50.071Z,0.00
2017-12-30T06:16:49.977Z,0.00
2017-12-30T06:17:49.897Z,0.00
2017-12-30T06:18:49.809Z,0.00
2017-12-30T06:19:49.735Z,0.00
2017-12-30T06:20:49.648Z,0.00
2017-12-30T06:21:49.553Z,0.00
2017-12-30T06:22:49.477Z,0.00
2017-12-30T06:23:49.405Z,0.00
2017-12-30T06:24:49.319Z,0.00
2017-12-30T06:25:49.229Z,0.00
2017-12-30T06:26:49.135Z,0.00
2017-12-30T06:27:49.072Z,0.00
2017-12-30T06:28:48.966Z,0.00
2017-12-30T06:29:48.908Z,0.00
2017-12-30T06:30:48.795Z,0.00
2017-12-30T06:31:48.735Z,0.00
2017-12-30T06:32:48.631Z,0.00
2017-12-30T06:33:48.546Z,0.00
2017-12-30T06:34:48.464Z,0.00
2017-12-30T06:35:48.392Z,0.00
2017-12-30T06:36:48.290Z,0.00
2017-12-30T06:37:48.211Z,0.00
2017-12-30T06:38:48.135Z,0.00
2017-12-30T06:39:48.049Z,0.00
2017-12-30T06:40:47.953Z,0.00
2017-12-30T06:41:47.878Z,0.00
2017-12-30T06:42:47.792Z,0.00
2017-12-30T06:43:47.707Z,0.00
2017-12-30T06:44:47.622Z,0.00
2017-12-30T06:45:47.545Z,0.00
2017-12-30T06:46:47.451Z,0.00
2017-12-30T06:47:47.389Z,0.00
2017-12-30T06:48:47.295Z,0.00
2017-12-30T06:49:47.211Z,0.00
2017-12-30T06:50:48.902Z,0.00
2017-12-30T06:51:47.043Z,0.00
2017-12-30T06:52:46.943Z,0.00
2017-12-30T06:53:46.883Z,0.00
2017-12-30T06:54:46.776Z,0.00
2017-12-30T06:55:46.714Z,0.00
2017-12-30T06:56:46.624Z,0.00
2017-12-30T06:57:46.542Z,0.00
2017-12-30T06:58:46.444Z,0.00
2017-12-30T06:59:46.371Z,0.00
2017-12-30T07:00:46.269Z,0.00
2017-12-30T07:01:46.200Z,0.00
2017-12-30T07:02:46.108Z,0.00
2017-12-30T07:03:46.023Z,0.00
2017-12-30T07:04:45.949Z,0.00
2017-12-30T07:05:45.853Z,0.00
2017-12-30T07:06:45.775Z,0.00
2017-12-30T07:07:45.700Z,0.00
2017-12-30T07:08:45.607Z,0.00
2017-12-30T07:09:45.524Z,0.00
2017-12-30T07:10:45.437Z,0.00
2017-12-30T07:11:45.349Z,0.00
2017-12-30T07:12:45.260Z,0.00
2017-12-30T07:13:45.179Z,0.00
2017-12-30T07:14:45.090Z,0.00
2017-12-30T07:15:45.019Z,5.63
2017-12-30T07:16:44.931Z,5.63
2017-12-30T07:17:44.863Z,5.63
2017-12-30T07:18:44.753Z,5.63
2017-12-30T07:19:44.677Z,5.63
2017-12-30T07:20:44.599Z,5.63
2017-12-30T07:21:44.514Z,5.63
2017-12-30T07:22:44.422Z,5.63
2017-12-30T07:23:44.342Z,5.63
2017-12-30T07:24:44.260Z,5.63
2017-12-30T07:25:45.172Z,5.63
2017-12-30T07:26:44.079Z,5.63
2017-12-30T07:27:44.002Z,5.63
2017-12-30T07:28:43.920Z,5.63
2017-12-30T07:29:43.836Z,5.63
2017-12-30T07:30:43.742Z,5.63
2017-12-30T07:31:43.682Z,5.63
2017-12-30T07:32:43.569Z,5.63
2017-12-30T07:33:43.504Z,5.63
2017-12-30T07:34:43.408Z,5.63
2017-12-30T07:35:43.333Z,5.63
2017-12-30T07:36:43.238Z,5.63
2017-12-30T07:37:43.163Z,5.63
2017-12-30T07:38:43.074Z,11.25
2017-12-30T07:39:42.990Z,11.25
2017-12-30T07:40:42.900Z,11.25
2017-12-30T07:41:42.841Z,11.25
2017-12-30T07:42:42.737Z,11.25
2017-12-30T07:43:42.658Z,11.25
2017-12-30T07:44:42.567Z,11.25
2017-12-30T07:45:42.539Z,11.25
2017-12-30T07:46:42.397Z,11.25
2017-12-30T07:47:43.898Z,16.88
2017-12-30T07:48:42.239Z,16.88
2017-12-30T07:49:42.166Z,16.88
2017-12-30T07:50:42.068Z,16.88
2017-12-30T07:51:41.986Z,16.88
2017-12-30T07:52:41.893Z,16.88
2017-12-30T07:53:41.818Z,16.88
2017-12-30T07:54:41.724Z,16.88
2017-12-30T07:55:41.651Z,11.25
2017-12-30T07:56:41.554Z,11.25
2017-12-30T07:57:41.486Z,11.25
2017-12-30T07:58:41.399Z,11.25
2017-12-30T07:59:41.315Z,11.25
2017-12-30T08:00:41.223Z,11.25
2017-12-30T08:01:41.152Z,11.25
2017-12-30T08:02:41.062Z,11.25
2017-12-30T08:03:40.976Z,11.25
2017-12-30T08:04:40.892Z,11.25
2017-12-30T08:05:40.826Z,11.25
2017-12-30T08:06:40.775Z,11.25
2017-12-30T08:07:40.649Z,11.25
2017-12-30T08:08:40.545Z,5.63
2017-12-30T08:09:40.480Z,5.63
2017-12-30T08:10:40.394Z,5.63
2017-12-30T08:11:40.322Z,5.63
2017-12-30T08:12:40.219Z,5.63
2017-12-30T08:13:40.135Z,11.25
2017-12-30T08:14:40.048Z,11.25
2017-12-30T08:15:39.991Z,11.25
2017-12-30T08:16:39.876Z,11.25
2017-12-30T08:17:39.797Z,16.88
2017-12-30T08:18:39.741Z,16.88
2017-12-30T08:19:39.634Z,16.88
2017-12-30T08:20:39.539Z,16.88
2017-12-30T08:21:39.474Z,22.50
2017-12-30T08:22:39.374Z,22.50
2017-12-30T08:23:39.294Z,22.50
2017-12-30T08:24:39.207Z,22.50
2017-12-30T08:25:39.128Z,22.50
2017-12-30T08:26:39.033Z,22.50
2017-12-30T08:27:39.965Z,22.50
2017-12-30T08:28:38.865Z,22.50
2017-12-30T08:29:38.791Z,22.50
2017-12-30T08:30:38.703Z,22.50
2017-12-30T08:31:38.624Z,28.13
2017-12-30T08:32:38.526Z,28.13
2017-12-30T08:33:38.462Z,28.13
2017-12-30T08:34:38.359Z,28.13
2017-12-30T08:35:38.298Z,28.13
2017-12-30T08:36:38.205Z,28.13
2017-12-30T08:37:38.117Z,28.13
2017-12-30T08:38:38.023Z,22.50
2017-12-30T08:39:37.953Z,22.50
2017-12-30T08:40:37.863Z,22.50
2017-12-30T08:41:37.787Z,28.13
2017-12-30T08:42:37.695Z,22.50
2017-12-30T08:43:37.619Z,22.50
2017-12-30T08:44:37.523Z,22.50
2017-12-30T08:45:37.451Z,22.50
2017-12-30T08:46:37.361Z,22.50
2017-12-30T08:47:37.287Z,22.50
2017-12-30T08:48:37.191Z,28.13
2017-12-30T08:49:37.111Z,22.50
2017-12-30T08:50:37.024Z,22.50
2017-12-30T08:51:36.950Z,22.50
2017-12-30T08:52:36.867Z,22.50
2017-12-30T08:53:36.794Z,22.50
2017-12-30T08:54:36.688Z,28.13
2017-12-30T08:55:36.623Z,28.13
2017-12-30T08:56:36.525Z,28.13
2017-12-30T08:57:36.476Z,28.13
2017-12-30T08:58:36.371Z,28.13
2017-12-30T08:59:36.290Z,28.13
2017-12-30T09:00:36.188Z,28.13
2017-12-30T09:01:36.110Z,28.13
2017-12-30T09:02:36.025Z,28.13
2017-12-30T09:03:35.943Z,28.13
2017-12-30T09:04:35.847Z,28.13
2017-12-30T09:05:35.784Z,28.13
2017-12-30T09:06:35.689Z,28.13
2017-12-30T09:07:35.615Z,33.75
2017-12-30T09:08:35.517Z,28.13
2017-12-30T09:09:35.449Z,28.13
2017-12-30T09:10:35.346Z,28.13
2017-12-30T09:11:35.273Z,28.13
2017-12-30T09:12:35.182Z,22.50
2017-12-30T09:13:35.114Z,22.50
2017-12-30T09:14:35.015Z,22.50
2017-12-30T09:15:34.942Z,22.50
2017-12-30T09:16:34.860Z,28.13
2017-12-30T09:17:34.776Z,28.13
2017-12-30T09:18:34.690Z,33.75
2017-12-30T09:19:34.611Z,33.75
2017-12-30T09:20:34.525Z,33.75
2017-12-30T09:21:34.445Z,39.38
2017-12-30T09:22:34.344Z,39.38
2017-12-30T09:23:34.281Z,39.38
2017-12-30T09:24:34.191Z,39.38
2017-12-30T09:25:34.112Z,39.38
2017-12-30T09:26:34.008Z,45.00
2017-12-30T09:27:33.956Z,45.00
2017-12-30T09:28:33.855Z,45.00
2017-12-30T09:29:33.785Z,45.00
2017-12-30T09:30:33.689Z,45.00
2017-12-30T09:31:33.618Z,50.63
2017-12-30T09:32:33.513Z,50.63
2017-12-30T09:33:33.434Z,50.63
2017-12-30T09:34:33.352Z,50.63
2017-12-30T09:35:33.276Z,56.25
2017-12-30T09:36:33.188Z,56.25
2017-12-30T09:37:33.115Z,56.25
2017-12-30T09:38:33.002Z,56.25
2017-12-30T09:39:32.938Z,50.63
2017-12-30T09:40:32.862Z,50.63
2017-12-30T09:41:32.785Z,50.63
2017-12-30T09:42:32.698Z,50.63
2017-12-30T09:43:32.593Z,45.00
2017-12-30T09:44:32.504Z,45.00
2017-12-30T09:45:32.455Z,39.38
2017-12-30T09:46:32.341Z,39.38
2017-12-30T09:47:32.289Z,33.75
2017-12-30T09:48:32.191Z,33.75
2017-12-30T09:49:32.108Z,28.13
2017-12-30T09:50:32.003Z,33.75
2017-12-30T09:51:31.944Z,39.38
2017-12-30T09:52:31.905Z,39.38
2017-12-30T09:53:31.768Z,39.38
2017-12-30T09:54:31.682Z,33.75
2017-12-30T09:55:31.608Z,28.13
2017-12-30T09:56:31.523Z,22.50
2017-12-30T09:57:31.454Z,22.50
2017-12-30T09:58:31.349Z,22.50
2017-12-30T09:59:31.271Z,22.50
2017-12-30T10:00:31.175Z,28.13
2017-12-30T10:01:31.103Z,33.75
2017-12-30T10:02:31.018Z,33.75
2017-12-30T10:03:30.932Z,28.13
2017-12-30T10:04:30.853Z,28.13
2017-12-30T10:05:30.776Z,28.13
2017-12-30T10:06:30.684Z,28.13
2017-12-30T10:07:30.595Z,28.13
2017-12-30T10:08:30.499Z,28.13
2017-12-30T10:09:30.430Z,28.13
2017-12-30T10:10:30.358Z,28.13
2017-12-30T10:11:30.259Z,28.13
2017-12-30T10:12:30.182Z,33.75
2017-12-30T10:13:30.101Z,33.75
2017-12-30T10:14:30.080Z,39.38
2017-12-30T10:15:29.935Z,39.38
2017-12-30T10:16:29.853Z,45.00
2017-12-30T10:17:29.763Z,45.00
2017-12-30T10:18:29.690Z,45.00
2017-12-30T10:19:29.622Z,45.00
2017-12-30T10:20:29.505Z,50.63
2017-12-30T10:21:29.441Z,50.63
2017-12-30T10:22:29.349Z,50.63
2017-12-30T10:23:30.259Z,45.00
2017-12-30T10:24:29.163Z,45.00
2017-12-30T10:25:29.089Z,39.38
2017-12-30T10:26:29.007Z,39.38
2017-12-30T10:27:28.935Z,39.38
2017-12-30T10:28:28.822Z,39.38
2017-12-30T10:29:28.775Z,39.38
2017-12-30T10:30:28.675Z,39.38
2017-12-30T10:31:28.592Z,39.38
2017-12-30T10:32:28.496Z,39.38
2017-12-30T10:33:28.440Z,39.38
2017-12-30T10:34:28.327Z,39.38
2017-12-30T10:35:28.271Z,33.75
2017-12-30T10:36:28.195Z,33.75
2017-12-30T10:37:28.088Z,33.75
2017-12-30T10:38:28.022Z,33.75
2017-12-30T10:39:27.953Z,33.75
2017-12-30T10:40:27.837Z,33.75
2017-12-30T10:41:27.761Z,33.75
2017-12-30T10:42:27.667Z,39.38
2017-12-30T10:43:27.605Z,39.38
2017-12-30T10:44:27.488Z,39.38
2017-12-30T10:45:27.442Z,39.38
2017-12-30T10:46:27.328Z,39.38
2017-12-30T10:47:27.275Z,39.38
2017-12-30T10:48:27.167Z,45.00
2017-12-30T10:49:27.093Z,45.00
2017-12-30T10:50:27.002Z,45.00
2017-12-30T10:51:26.912Z,50.63
2017-12-30T10:52:26.835Z,50.63
2017-12-30T10:53:26.741Z,50.63
2017-12-30T10:54:26.680Z,50.63
2017-12-30T10:55:26.590Z,56.25
2017-12-30T10:56:26.488Z,56.25
2017-12-30T10:57:26.411Z,50.63
2017-12-30T10:58:26.316Z,45.00
2017-12-30T10:59:26.242Z,45.00
2017-12-30T11:00:26.155Z,45.00
2017-12-30T11:01:26.072Z,45.00
2017-12-30T11:02:25.987Z,50.63
2017-12-30T11:03:25.928Z,50.63
2017-12-30T11:04:25.823Z,50.63
2017-12-30T11:05:25.742Z,50.63
2017-12-30T11:06:25.645Z,56.25
2017-12-30T11:07:25.582Z,50.63
2017-12-30T11:08:25.491Z,45.00
2017-12-30T11:09:25.415Z,45.00
2017-12-30T11:10:25.306Z,45.00
2017-12-30T11:11:25.246Z,39.38
2017-12-30T11:12:25.142Z,39.38
2017-12-30T11:13:25.076Z,39.38
2017-12-30T11:14:24.972Z,45.00
2017-12-30T11:15:24.910Z,45.00
2017-12-30T11:16:24.818Z,45.00
2017-12-30T11:17:24.747Z,45.00
2017-12-30T11:18:24.643Z,45.00
2017-12-30T11:19:24.576Z,50.63
2017-12-30T11:20:24.481Z,56.25
2017-12-30T11:21:24.417Z,56.25
2017-12-30T11:22:24.318Z,50.63
2017-12-30T11:23:24.245Z,45.00
2017-12-30T11:24:24.151Z,45.00
2017-12-30T11:25:24.072Z,45.00
2017-12-30T11:26:23.970Z,39.38
2017-12-30T11:27:23.901Z,39.38
2017-12-30T11:28:23.810Z,39.38
2017-12-30T11:29:23.731Z,39.38
2017-12-30T11:30:23.668Z,39.38
2017-12-30T11:31:23.568Z,39.38
2017-12-30T11:32:23.471Z,39.38
2017-12-30T11:33:24.398Z,33.75
2017-12-30T11:34:23.329Z,33.75
2017-12-30T11:35:24.231Z,33.75
2017-12-30T11:36:23.137Z,33.75
2017-12-30T11:37:23.069Z,33.75
2017-12-30T11:38:22.980Z,33.75
2017-12-30T11:39:22.916Z,33.75
2017-12-30T11:40:22.806Z,33.75
2017-12-30T11:41:22.734Z,33.75
2017-12-30T11:42:22.639Z,33.75
2017-12-30T11:43:22.558Z,33.75
2017-12-30T11:44:22.467Z,33.75
2017-12-30T11:45:22.412Z,33.75
2017-12-30T11:46:22.315Z,33.75
2017-12-30T11:47:22.247Z,33.75
2017-12-30T11:48:22.141Z,33.75
2017-12-30T11:49:22.062Z,28.13
2017-12-30T11:50:21.961Z,28.13
2017-12-30T11:51:21.888Z,22.50
2017-12-30T11:52:21.817Z,22.50
2017-12-30T11:53:21.755Z,28.13
2017-12-30T11:54:21.639Z,22.50
2017-12-30T11:55:21.572Z,22.50
2017-12-30T11:56:21.475Z,22.50
2017-12-30T11:57:21.419Z,22.50
2017-12-30T11:58:21.306Z,22.50
2017-12-30T11:59:21.233Z,16.88
2017-12-30T12:00:21.134Z,22.50
2017-12-30T12:01:21.066Z,22.50
2017-12-30T12:02:20.982Z,22.50
2017-12-30T12:03:20.913Z,22.50
2017-12-30T12:04:20.793Z,22.50
2017-12-30T12:05:20.752Z,22.50
2017-12-30T12:06:20.631Z,16.88
2017-12-30T12:07:20.555Z,22.50
2017-12-30T12:08:20.494Z,16.88
2017-12-30T12:09:20.387Z,22.50
2017-12-30T12:10:20.325Z,22.50
2017-12-30T12:11:20.246Z,22.50
2017-12-30T12:12:20.148Z,22.50
2017-12-30T12:13:20.082Z,22.50
2017-12-30T12:14:19.961Z,22.50
2017-12-30T12:15:19.892Z,22.50
2017-12-30T12:16:19.805Z,28.13
2017-12-30T12:17:19.753Z,28.13
2017-12-30T12:18:19.668Z,22.50
2017-12-30T12:19:19.563Z,22.50
2017-12-30T12:20:19.469Z,22.50
2017-12-30T12:21:19.399Z,16.88
2017-12-30T12:22:19.331Z,16.88
2017-12-30T12:23:19.225Z,16.88
2017-12-30T12:24:19.163Z,22.50
2017-12-30T12:25:19.081Z,28.13
2017-12-30T12:26:18.971Z,28.13
2017-12-30T12:27:18.898Z,28.13
2017-12-30T12:28:18.820Z,22.50
2017-12-30T12:29:18.751Z,22.50
2017-12-30T12:30:18.640Z,22.50
2017-12-30T12:31:18.582Z,16.88
2017-12-30T12:32:18.469Z,16.88
2017-12-30T12:33:18.395Z,16.88
2017-12-30T12:34:18.324Z,22.50
2017-12-30T12:35:18.226Z,22.50
2017-12-30T12:36:18.146Z,28.13
2017-12-30T12:37:18.067Z,28.13
2017-12-30T12:38:18.015Z,33.75
2017-12-30T12:39:17.916Z,33.75
2017-12-30T12:40:17.795Z,28.13
2017-12-30T12:41:17.761Z,28.13
2017-12-30T12:42:17.659Z,22.50
2017-12-30T12:43:17.577Z,28.13
2017-12-30T12:44:17.497Z,28.13
2017-12-30T12:45:17.391Z,28.13
2017-12-30T12:46:17.309Z,22.50
2017-12-30T12:47:17.240Z,22.50
2017-12-30T12:48:17.138Z,22.50
2017-12-30T12:49:17.067Z,16.88
2017-12-30T12:50:16.975Z,22.50
2017-12-30T12:51:16.904Z,22.50
2017-12-30T12:52:16.813Z,16.88
2017-12-30T12:53:16.750Z,22.50
2017-12-30T12:54:16.660Z,22.50
2017-12-30T12:55:16.577Z,16.88
2017-12-30T12:56:16.468Z,16.88
2017-12-30T12:57:16.381Z,16.88
2017-12-30T12:58:16.341Z,16.88
2017-12-30T12:59:16.258Z,11.25
2017-12-30T13:00:16.158Z,11.25
2017-12-30T13:01:16.075Z,11.25
2017-12-30T13:02:16.007Z,11.25
2017-12-30T13:03:15.918Z,11.25
2017-12-30T13:04:15.872Z,11.25
2017-12-30T13:05:15.725Z,5.63
2017-12-30T13:06:15.663Z,5.63